createdAt,value
2022-11-19T00:00:07.319Z,9.40
2022-11-19T00:02:35.388Z,14.00
2022-11-19T00:05:03.476Z,14.25
2022-11-19T00:07:31.545Z,14.50
2022-11-19T00:10:00.975Z,15.40
2022-11-19T00:12:46.352Z,14.75
2022-11-19T00:15:14.669Z,15.80
2022-11-19T00:17:42.728Z,21.60
2022-11-19T00:20:11.157Z,17.40
2022-11-19T00:22:39.232Z,20.60
2022-11-19T00:25:09.504Z,20.40
2022-11-19T00:27:37.568Z,20.00
2022-11-19T00:30:19.923Z,21.00
2022-11-19T00:32:54.151Z,25.00
2022-11-19T00:35:22.179Z,43.00
2022-11-19T00:37:50.237Z,23.50
2022-11-19T00:40:19.800Z,22.20
2022-11-19T00:43:07.860Z,24.80
2022-11-19T00:45:35.887Z,20.00
2022-11-19T00:48:03.953Z,28.20
2022-11-19T00:50:31.984Z,40.25
2022-11-19T00:53:00.515Z,29.20
2022-11-19T00:55:29.904Z,20.75
2022-11-19T00:57:57.965Z,45.00
2022-11-19T01:00:26.010Z,19.00
2022-11-19T01:02:54.067Z,15.00
2022-11-19T01:05:22.093Z,57.00
2022-11-19T01:07:50.149Z,28.80
2022-11-19T01:10:18.379Z,11.00
2022-11-19T01:13:01.702Z,29.25
2022-11-19T01:15:29.728Z,29.50
2022-11-19T01:17:57.778Z,38.75
2022-11-19T01:20:25.862Z,12.40
2022-11-19T01:22:53.965Z,24.00
2022-11-19T01:25:21.994Z,12.20
2022-11-19T01:27:51.906Z,12.00
2022-11-19T01:30:20.100Z,19.00
2022-11-19T01:32:48.152Z,13.50
2022-11-19T01:35:16.220Z,17.00
2022-11-19T01:37:44.271Z,13.60
2022-11-19T01:40:13.087Z,14.00
2022-11-19T01:42:54.033Z,13.00
2022-11-19T01:45:29.247Z,16.00
2022-11-19T01:47:58.938Z,13.00
2022-11-19T01:50:27.002Z,11.40
2022-11-19T01:52:55.117Z,11.00
2022-11-19T01:55:23.148Z,13.00
2022-11-19T01:57:54.143Z,11.00
2022-11-19T02:00:22.304Z,13.60
2022-11-19T02:02:52.801Z,11.00
2022-11-19T02:05:21.019Z,16.50
2022-11-19T02:07:50.957Z,16.00
2022-11-19T02:10:19.092Z,16.00
2022-11-19T02:12:49.105Z,16.50
2022-11-19T02:15:21.252Z,22.00
2022-11-19T02:18:00.019Z,21.00
2022-11-19T02:20:48.166Z,22.00
2022-11-19T02:23:45.692Z,13.50
2022-11-19T02:26:47.052Z,17.00
2022-11-19T02:29:20.560Z,16.00
2022-11-19T02:31:51.860Z,17.80
2022-11-19T02:34:22.673Z,15.20
2022-11-19T02:36:55.499Z,14.40
2022-11-19T02:39:26.114Z,16.00
2022-11-19T02:41:56.760Z,16.00
2022-11-19T02:44:49.932Z,14.00
2022-11-19T02:47:20.285Z,13.00
2022-11-19T02:49:48.324Z,11.00
2022-11-19T02:52:16.456Z,13.00
2022-11-19T02:54:44.501Z,13.60
2022-11-19T02:57:13.007Z,18.50
2022-11-19T02:59:59.910Z,14.80
2022-11-19T03:02:48.460Z,12.80
2022-11-19T03:05:17.527Z,12.20
2022-11-19T03:07:45.583Z,11.60
2022-11-19T03:10:13.699Z,16.80
2022-11-19T03:12:46.336Z,11.00
2022-11-19T03:15:41.421Z,13.40
2022-11-19T03:18:12.319Z,10.00
2022-11-19T03:20:41.784Z,10.75
2022-11-19T03:23:11.918Z,13.00
2022-11-19T03:25:41.786Z,10.20
2022-11-19T03:28:11.408Z,10.00
2022-11-19T03:30:39.454Z,13.25
2022-11-19T03:33:08.758Z,13.00
2022-11-19T03:35:41.214Z,14.00
2022-11-19T03:38:11.674Z,16.00
2022-11-19T03:40:39.707Z,19.00
2022-11-19T03:43:07.980Z,17.00
2022-11-19T03:45:41.485Z,14.80
2022-11-19T03:48:09.568Z,11.00
2022-11-19T03:50:44.180Z,11.50
2022-11-19T03:53:12.231Z,11.00
2022-11-19T03:55:45.840Z,11.00
2022-11-19T03:58:13.893Z,8.00
2022-11-19T04:00:41.939Z,10.00
2022-11-19T04:03:10.035Z,10.00
2022-11-19T04:05:38.071Z,7.00
2022-11-19T04:08:07.608Z,10.00
2022-11-19T04:10:35.644Z,10.40
2022-11-19T04:13:03.708Z,11.00
2022-11-19T04:15:31.790Z,13.00
2022-11-19T04:17:59.847Z,8.00
2022-11-19T04:20:27.900Z,10.00
2022-11-19T04:22:55.978Z,14.00
2022-11-19T04:25:25.375Z,11.00
2022-11-19T04:27:53.898Z,10.00
2022-11-19T04:30:21.954Z,8.00
2022-11-19T04:32:50.010Z,16.00
2022-11-19T04:35:21.442Z,11.00
2022-11-19T04:37:49.548Z,11.00
2022-11-19T04:40:17.730Z,11.00
2022-11-19T04:42:47.148Z,13.00
2022-11-19T04:45:15.310Z,12.50
2022-11-19T04:47:43.376Z,11.00
2022-11-19T04:50:11.484Z,13.25
2022-11-19T04:52:41.365Z,10.40
2022-11-19T04:55:10.831Z,10.25
2022-11-19T04:57:38.896Z,11.00
2022-11-19T05:00:09.760Z,8.40
2022-11-19T05:02:37.809Z,10.25
2022-11-19T05:05:06.456Z,10.00
2022-11-19T05:07:34.556Z,10.50
2022-11-19T05:10:02.731Z,13.40
2022-11-19T05:12:30.772Z,12.50
2022-11-19T05:14:58.824Z,8.00
2022-11-19T05:17:28.203Z,10.00
2022-11-19T05:19:56.260Z,11.00
2022-11-19T05:22:24.306Z,11.00
2022-11-19T05:24:52.384Z,13.40
2022-11-19T05:27:20.422Z,11.00
2022-11-19T05:29:48.476Z,8.00
2022-11-19T05:32:16.572Z,11.00
2022-11-19T05:34:46.023Z,10.40
2022-11-19T05:37:14.024Z,11.00
2022-11-19T05:39:42.080Z,10.00
2022-11-19T05:42:10.118Z,11.00
2022-11-19T05:44:38.170Z,10.50
2022-11-19T05:47:06.284Z,10.00
2022-11-19T05:49:34.337Z,12.00
2022-11-19T05:52:03.723Z,16.00
2022-11-19T05:54:31.897Z,11.00
2022-11-19T05:56:59.952Z,10.40
2022-11-19T05:59:28.012Z,12.00
2022-11-19T06:01:56.048Z,13.50
2022-11-19T06:04:24.097Z,10.40
2022-11-19T06:06:52.518Z,11.00
2022-11-19T06:09:22.233Z,9.20
2022-11-19T06:11:51.025Z,12.00
2022-11-19T06:14:19.707Z,9.00
2022-11-19T06:16:47.741Z,8.00
2022-11-19T06:19:15.801Z,8.00
2022-11-19T06:21:43.833Z,9.20
2022-11-19T06:24:12.864Z,7.50
2022-11-19T06:26:42.260Z,11.00
2022-11-19T06:29:10.646Z,8.20
2022-11-19T06:31:38.671Z,11.00
2022-11-19T06:34:06.865Z,10.20
2022-11-19T06:36:40.238Z,12.00
2022-11-19T06:39:10.077Z,8.20
2022-11-19T06:41:38.119Z,8.60
2022-11-19T06:44:07.655Z,9.00
2022-11-19T06:46:35.760Z,12.40
2022-11-19T06:49:05.869Z,15.40
2022-11-19T06:51:34.052Z,20.60
2022-11-19T06:54:02.111Z,18.60
2022-11-19T06:56:30.131Z,12.50
2022-11-19T06:58:58.860Z,11.00
2022-11-19T07:01:28.283Z,12.00
2022-11-19T07:03:56.405Z,15.00
2022-11-19T07:06:24.437Z,12.00
2022-11-19T07:08:52.495Z,9.80
2022-11-19T07:11:29.320Z,8.00
2022-11-19T07:14:00.775Z,9.00
2022-11-19T07:16:31.151Z,11.00
2022-11-19T07:18:59.775Z,11.00
2022-11-19T07:21:27.890Z,9.00
2022-11-19T07:23:55.980Z,10.33
2022-11-19T07:26:24.097Z,10.20
2022-11-19T07:28:52.156Z,10.80
2022-11-19T07:31:20.178Z,8.75
2022-11-19T07:33:49.605Z,10.60
2022-11-19T07:36:18.757Z,11.80
2022-11-19T07:38:47.143Z,9.00
2022-11-19T07:41:32.624Z,8.80
2022-11-19T07:44:00.684Z,9.60
2022-11-19T07:46:28.870Z,10.80
2022-11-19T07:48:58.575Z,10.00
2022-11-19T07:51:26.666Z,10.00
2022-11-19T07:53:55.731Z,10.00
2022-11-19T07:56:23.836Z,10.00
2022-11-19T07:58:51.922Z,9.00
2022-11-19T08:01:21.021Z,8.20
2022-11-19T08:03:54.711Z,9.60
2022-11-19T08:06:26.003Z,11.20
2022-11-19T08:08:54.953Z,9.00
2022-11-19T08:11:22.987Z,9.00
2022-11-19T08:13:51.057Z,6.80
2022-11-19T08:16:39.686Z,9.80
2022-11-19T08:19:07.818Z,9.00
2022-11-19T08:21:37.321Z,10.00
2022-11-19T08:24:05.773Z,6.40
2022-11-19T08:26:33.780Z,9.20
2022-11-19T08:29:01.960Z,12.00
2022-11-19T08:31:30.028Z,7.00
2022-11-19T08:33:58.087Z,9.50
2022-11-19T08:36:26.127Z,5.25
2022-11-19T08:38:57.282Z,9.00
2022-11-19T08:41:42.642Z,9.40
2022-11-19T08:44:10.703Z,8.50
2022-11-19T08:46:38.765Z,9.20
2022-11-19T08:49:06.935Z,9.00
2022-11-19T08:51:34.966Z,6.80
2022-11-19T08:54:04.752Z,8.50
2022-11-19T08:56:33.280Z,8.20
2022-11-19T08:59:02.893Z,9.00
2022-11-19T09:01:31.415Z,8.00
2022-11-19T09:03:59.520Z,13.50
2022-11-19T09:06:27.641Z,8.60
2022-11-19T09:08:55.706Z,8.25
2022-11-19T09:11:25.102Z,7.20
2022-11-19T09:13:53.160Z,6.00
2022-11-19T09:16:21.192Z,9.00
2022-11-19T09:18:49.251Z,8.00
2022-11-19T09:21:17.273Z,9.00
2022-11-19T09:23:45.322Z,8.00
2022-11-19T09:26:14.470Z,10.00
2022-11-19T09:28:43.956Z,9.00
2022-11-19T09:31:13.318Z,10.00
2022-11-19T09:33:43.116Z,9.75
2022-11-19T09:36:11.324Z,9.00
2022-11-19T09:38:39.929Z,12.40
2022-11-19T09:41:19.942Z,9.40
2022-11-19T09:43:52.829Z,10.00
2022-11-19T09:46:24.114Z,7.80
2022-11-19T09:48:52.270Z,9.60
2022-11-19T09:51:22.184Z,7.00
2022-11-19T09:53:51.651Z,7.80
2022-11-19T09:56:23.669Z,9.00
2022-11-19T09:58:53.083Z,6.00
2022-11-19T10:01:21.112Z,8.20
2022-11-19T10:03:51.605Z,7.67
2022-11-19T10:06:24.744Z,7.00
2022-11-19T10:09:20.543Z,6.00
2022-11-19T10:11:54.299Z,8.20
2022-11-19T10:14:35.427Z,6.00
2022-11-19T10:17:06.931Z,7.80
2022-11-19T10:19:41.982Z,6.00
2022-11-19T10:22:11.358Z,7.00
2022-11-19T10:24:42.279Z,10.60
2022-11-19T10:27:17.507Z,6.00
2022-11-19T10:29:46.941Z,10.00
2022-11-19T10:32:23.349Z,7.00
2022-11-19T10:34:52.712Z,6.00
2022-11-19T10:37:21.524Z,6.00
2022-11-19T10:39:51.066Z,5.00
2022-11-19T10:42:21.012Z,9.50
2022-11-19T10:44:53.255Z,5.00
2022-11-19T10:47:23.441Z,6.00
2022-11-19T10:49:53.243Z,6.00
2022-11-19T10:52:27.237Z,5.60
2022-11-19T10:54:57.574Z,6.00
2022-11-19T10:57:25.611Z,6.00
2022-11-19T10:59:55.045Z,6.00
2022-11-19T11:02:28.111Z,6.00
2022-11-19T11:05:05.881Z,5.00
2022-11-19T11:07:50.859Z,9.00
2022-11-19T11:10:34.013Z,5.50
2022-11-19T11:13:35.022Z,5.00
2022-11-19T11:16:08.305Z,5.75
2022-11-19T11:18:36.557Z,5.00
2022-11-19T11:21:04.643Z,5.40
2022-11-19T11:23:32.677Z,5.00
2022-11-19T11:26:04.691Z,3.00
2022-11-19T11:28:32.749Z,6.00
2022-11-19T11:31:01.576Z,3.00
2022-11-19T11:33:35.192Z,3.00
2022-11-19T11:36:05.763Z,5.00
2022-11-19T11:38:33.796Z,5.00
2022-11-19T11:41:44.033Z,7.00
2022-11-19T11:44:02.328Z,5.00
2022-11-19T11:46:36.136Z,6.00
2022-11-19T11:49:11.258Z,6.00
2022-11-19T11:51:40.644Z,2.20
2022-11-19T11:54:18.194Z,5.00
2022-11-19T11:56:46.669Z,6.00
2022-11-19T11:59:16.257Z,6.00
2022-11-19T12:01:44.315Z,6.00
2022-11-19T12:04:14.313Z,5.00
2022-11-19T12:06:49.471Z,6.00
2022-11-19T12:09:19.976Z,7.80
2022-11-19T12:11:55.508Z,6.20
2022-11-19T12:14:24.307Z,5.00
2022-11-19T12:17:01.904Z,6.00
2022-11-19T12:19:38.311Z,6.00
2022-11-19T12:22:09.180Z,6.00
2022-11-19T12:25:05.123Z,5.60
2022-11-19T12:27:35.537Z,6.00
2022-11-19T12:30:07.116Z,5.00
2022-11-19T12:32:46.326Z,5.80
2022-11-19T12:35:22.822Z,6.20
2022-11-19T12:37:59.517Z,3.00
2022-11-19T12:40:39.759Z,3.00
2022-11-19T12:43:14.299Z,3.00
2022-11-19T12:45:44.448Z,3.50
2022-11-19T12:48:27.033Z,2.75
2022-11-19T12:50:57.690Z,3.00
2022-11-19T12:53:38.374Z,3.80
2022-11-19T12:56:10.950Z,3.00
2022-11-19T12:58:42.760Z,3.00
2022-11-19T13:01:13.875Z,2.80
2022-11-19T13:03:48.207Z,3.00
2022-11-19T13:06:19.603Z,3.00
2022-11-19T13:08:49.619Z,2.50
2022-11-19T13:11:18.783Z,2.00
2022-11-19T13:13:47.826Z,3.00
2022-11-19T13:16:16.670Z,3.00
2022-11-19T13:18:46.518Z,3.00
2022-11-19T13:21:19.435Z,2.00
2022-11-19T13:23:48.164Z,3.00
2022-11-19T13:26:17.834Z,3.00
2022-11-19T13:28:47.704Z,3.00
2022-11-19T13:31:34.040Z,3.00
2022-11-19T13:34:03.735Z,4.60
2022-11-19T13:36:37.150Z,2.00
2022-11-19T13:39:11.354Z,6.00
2022-11-19T13:42:02.261Z,5.00
2022-11-19T13:44:41.685Z,5.00
2022-11-19T13:47:12.531Z,5.00
2022-11-19T13:49:41.212Z,5.50
2022-11-19T13:52:11.399Z,7.00
2022-11-19T13:54:40.784Z,6.00
2022-11-19T13:57:09.654Z,32.00
2022-11-19T13:59:38.727Z,11.80
2022-11-19T14:02:34.437Z,23.80
2022-11-19T14:05:11.187Z,6.60
2022-11-19T14:07:48.305Z,6.00
2022-11-19T14:10:18.722Z,5.00
2022-11-19T14:12:57.643Z,6.00
2022-11-19T14:15:47.476Z,12.75
2022-11-19T14:18:40.283Z,7.00
2022-11-19T14:21:59.732Z,8.00
2022-11-19T14:25:16.477Z,6.25
2022-11-19T14:27:44.797Z,7.00
2022-11-19T14:30:17.688Z,8.00
2022-11-19T14:32:50.437Z,6.00
2022-11-19T14:35:39.301Z,9.75
2022-11-19T14:38:42.285Z,8.80
2022-11-19T14:41:30.766Z,7.20
2022-11-19T14:44:35.979Z,6.00
2022-11-19T14:47:35.071Z,7.00
2022-11-19T14:50:05.149Z,6.40
2022-11-19T14:52:34.596Z,7.00
2022-11-19T14:55:04.535Z,9.33
2022-11-19T14:57:34.919Z,6.40
2022-11-19T15:00:04.257Z,8.00
2022-11-19T15:02:37.029Z,7.00
2022-11-19T15:05:07.747Z,7.00
2022-11-19T15:07:41.753Z,10.00
2022-11-19T15:10:31.873Z,6.00
2022-11-19T15:13:17.423Z,8.00
2022-11-19T15:15:45.975Z,8.20
2022-11-19T15:18:35.167Z,10.00
2022-11-19T15:21:13.356Z,6.25
2022-11-19T15:23:43.818Z,11.00
2022-11-19T15:26:17.612Z,10.00
2022-11-19T15:28:51.035Z,8.20
2022-11-19T15:31:27.198Z,12.00
2022-11-19T15:34:19.377Z,11.00
2022-11-19T15:36:47.870Z,11.40
2022-11-19T15:39:17.889Z,10.60
2022-11-19T15:42:00.562Z,10.00
2022-11-19T15:44:35.332Z,8.00
2022-11-19T15:47:04.618Z,10.00
2022-11-19T15:49:32.646Z,11.00
2022-11-19T15:52:04.296Z,11.00
2022-11-19T15:54:32.828Z,12.00
2022-11-19T15:57:02.812Z,10.00
2022-11-19T15:59:33.750Z,9.50
2022-11-19T16:02:02.364Z,10.00
2022-11-19T16:04:32.552Z,9.00
2022-11-19T16:07:00.636Z,11.00
2022-11-19T16:09:28.676Z,9.00
2022-11-19T16:12:14.735Z,6.60
2022-11-19T16:15:07.295Z,10.75
2022-11-19T16:17:43.891Z,9.00
2022-11-19T16:20:23.333Z,9.00
2022-11-19T16:22:56.583Z,14.75
2022-11-19T16:25:28.428Z,11.00
2022-11-19T16:27:58.055Z,9.00
2022-11-19T16:30:28.580Z,8.60
2022-11-19T16:32:59.048Z,6.60
2022-11-19T16:35:27.972Z,7.00
2022-11-19T16:37:56.045Z,7.00
2022-11-19T16:40:24.258Z,7.00
2022-11-19T16:42:53.274Z,9.00
2022-11-19T16:45:22.960Z,5.60
2022-11-19T16:47:56.187Z,6.25
2022-11-19T16:50:29.534Z,7.00
2022-11-19T16:52:57.621Z,6.00
2022-11-19T16:55:40.370Z,7.00
2022-11-19T16:58:15.508Z,8.20
2022-11-19T17:00:46.454Z,6.00
2022-11-19T17:03:23.925Z,5.00
2022-11-19T17:05:53.102Z,5.00
2022-11-19T17:08:21.917Z,7.00
2022-11-19T17:10:49.953Z,5.40
2022-11-19T17:13:28.764Z,5.00
2022-11-19T17:15:56.851Z,6.00
2022-11-19T17:18:30.849Z,7.00
2022-11-19T17:20:58.913Z,5.00
2022-11-19T17:23:27.541Z,6.40
2022-11-19T17:25:56.454Z,5.00
2022-11-19T17:28:28.736Z,7.00
2022-11-19T17:30:57.010Z,5.00
2022-11-19T17:33:25.087Z,5.00
2022-11-19T17:35:54.515Z,2.75
2022-11-19T17:38:23.952Z,5.00
2022-11-19T17:40:53.246Z,3.00
2022-11-19T17:43:41.280Z,2.80
2022-11-19T17:46:09.358Z,5.00
2022-11-19T17:48:37.426Z,5.00
2022-11-19T17:51:07.187Z,5.00
2022-11-19T17:53:35.280Z,5.00
2022-11-19T17:56:03.399Z,5.00
2022-11-19T17:58:31.456Z,2.40
2022-11-19T18:00:59.489Z,4.00
2022-11-19T18:03:27.562Z,5.00
2022-11-19T18:05:56.219Z,3.00
2022-11-19T18:08:26.300Z,4.20
2022-11-19T18:10:54.330Z,3.00
2022-11-19T18:13:26.158Z,6.00
2022-11-19T18:15:54.202Z,3.00
2022-11-19T18:18:22.513Z,3.00
2022-11-19T18:20:50.631Z,6.00
2022-11-19T18:23:18.694Z,4.00
2022-11-19T18:25:48.077Z,5.00
2022-11-19T18:28:16.151Z,3.00
2022-11-19T18:30:44.179Z,5.00
2022-11-19T18:33:12.403Z,3.00
2022-11-19T18:35:40.434Z,4.20
2022-11-19T18:38:08.505Z,3.80
2022-11-19T18:40:37.027Z,5.40
2022-11-19T18:43:24.000Z,5.00
2022-11-19T18:45:52.024Z,3.00
2022-11-19T18:48:20.073Z,3.00
2022-11-19T18:50:48.096Z,10.00
2022-11-19T18:53:16.142Z,3.00
2022-11-19T18:55:44.201Z,3.00
2022-11-19T18:58:14.834Z,3.00
2022-11-19T19:00:43.212Z,7.00
2022-11-19T19:03:13.230Z,6.00
2022-11-19T19:05:41.313Z,7.00
2022-11-19T19:08:09.358Z,5.00
2022-11-19T19:10:37.414Z,7.00
2022-11-19T19:13:04.472Z,6.50
2022-11-19T19:15:33.931Z,5.00
2022-11-19T19:18:07.480Z,7.00
2022-11-19T19:20:35.893Z,9.00
2022-11-19T19:23:04.022Z,7.00
2022-11-19T19:25:32.178Z,9.80
2022-11-19T19:28:00.334Z,5.00
2022-11-19T19:30:28.417Z,6.60
2022-11-19T19:32:58.089Z,6.00
2022-11-19T19:35:26.109Z,5.00
2022-11-19T19:37:54.161Z,3.40
2022-11-19T19:40:22.175Z,5.00
2022-11-19T19:42:50.219Z,5.00
2022-11-19T19:45:18.388Z,5.00
2022-11-19T19:47:46.435Z,4.20
2022-11-19T19:50:15.911Z,3.50
2022-11-19T19:52:43.918Z,5.00
2022-11-19T19:55:11.960Z,5.00
2022-11-19T19:57:39.980Z,3.00
2022-11-19T20:00:10.299Z,5.00
2022-11-19T20:02:40.227Z,3.00
2022-11-19T20:05:08.917Z,5.00
2022-11-19T20:07:38.338Z,5.00
2022-11-19T20:10:07.435Z,5.00
2022-11-19T20:12:49.347Z,9.00
2022-11-19T20:15:17.944Z,4.00
2022-11-19T20:17:45.963Z,6.00
2022-11-19T20:20:14.312Z,3.00
2022-11-19T20:22:43.696Z,17.40
2022-11-19T20:25:11.891Z,6.40
2022-11-19T20:27:39.909Z,5.00
2022-11-19T20:30:09.587Z,5.50
2022-11-19T20:32:37.723Z,4.00
2022-11-19T20:35:06.287Z,5.80
2022-11-19T20:37:34.317Z,4.60
2022-11-19T20:40:03.830Z,7.40
2022-11-19T20:42:49.232Z,12.00
2022-11-19T20:45:17.337Z,9.00
2022-11-19T20:47:45.346Z,21.00
2022-11-19T20:50:13.407Z,7.00
2022-11-19T20:52:41.436Z,25.00
2022-11-19T20:55:11.319Z,9.60
2022-11-19T20:57:39.330Z,6.40
2022-11-19T21:00:08.681Z,8.75
2022-11-19T21:02:36.753Z,10.00
2022-11-19T21:05:05.219Z,12.00
2022-11-19T21:07:33.328Z,8.20
2022-11-19T21:10:07.405Z,12.00
2022-11-19T21:12:57.267Z,11.60
2022-11-19T21:15:25.300Z,11.60
2022-11-19T21:17:53.347Z,12.80
2022-11-19T21:20:21.404Z,11.80
2022-11-19T21:22:50.607Z,20.60
2022-11-19T21:25:18.674Z,24.00
2022-11-19T21:27:48.149Z,18.00
2022-11-19T21:30:16.416Z,34.75
2022-11-19T21:32:44.474Z,12.00
2022-11-19T21:35:12.524Z,8.00
2022-11-19T21:37:40.550Z,15.00
2022-11-19T21:40:09.567Z,9.20
2022-11-19T21:42:37.582Z,33.40
2022-11-19T21:45:08.629Z,19.00
2022-11-19T21:47:36.647Z,9.00
2022-11-19T21:50:05.012Z,11.00
2022-11-19T21:52:33.048Z,10.00
2022-11-19T21:55:01.082Z,10.00
2022-11-19T21:57:29.749Z,9.25
2022-11-19T21:59:57.796Z,14.00
2022-11-19T22:02:27.167Z,9.75
2022-11-19T22:04:55.208Z,11.00
2022-11-19T22:07:23.266Z,11.75
2022-11-19T22:09:51.334Z,11.33
2022-11-19T22:12:19.348Z,9.60
2022-11-19T22:14:47.394Z,10.50
2022-11-19T22:17:15.416Z,11.00
2022-11-19T22:19:44.830Z,9.80
2022-11-19T22:22:12.852Z,9.60
2022-11-19T22:24:40.900Z,10.00
2022-11-19T22:27:08.915Z,11.00
2022-11-19T22:29:36.958Z,10.00
2022-11-19T22:32:05.358Z,10.00
2022-11-19T22:34:33.395Z,9.60
2022-11-19T22:37:03.001Z,45.50
2022-11-19T22:39:31.060Z,21.40
2022-11-19T22:41:59.638Z,10.75
2022-11-19T22:44:27.657Z,12.00
2022-11-19T22:46:58.574Z,12.00
2022-11-19T22:49:27.292Z,12.00
2022-11-19T22:51:55.414Z,10.60
2022-11-19T22:54:24.811Z,9.00
2022-11-19T22:56:53.094Z,15.40
2022-11-19T22:59:21.284Z,11.50
2022-11-19T23:01:49.445Z,11.60
2022-11-19T23:04:17.515Z,7.00
2022-11-19T23:06:45.526Z,10.75
2022-11-19T23:09:13.578Z,10.00
2022-11-19T23:12:00.904Z,11.00
2022-11-19T23:14:30.080Z,10.60
2022-11-19T23:16:58.100Z,11.50
2022-11-19T23:19:26.143Z,15.00
2022-11-19T23:21:54.158Z,12.00
2022-11-19T23:24:22.209Z,15.00
2022-11-19T23:26:51.579Z,14.00
2022-11-19T23:29:19.919Z,12.20
2022-11-19T23:31:48.140Z,11.40
2022-11-19T23:34:16.307Z,12.00
2022-11-19T23:36:44.333Z,11.33
2022-11-19T23:39:15.622Z,10.00
2022-11-19T23:41:43.641Z,9.25
2022-11-19T23:44:13.054Z,11.00
2022-11-19T23:46:41.386Z,9.00
2022-11-19T23:49:10.162Z,10.00
2022-11-19T23:51:38.803Z,11.00
2022-11-19T23:54:07.163Z,10.40
2022-11-19T23:56:35.939Z,14.00
2022-11-19T23:59:04.662Z,11.00
